Weather at Northeast Community Hospital Heliport

Public forecast

Using degrees Fahrenheit for public forecast. Weather courtesy of forecast.io.

Closest aviation weather report (METAR) to Northeast Community Hospital Heliport

Closest report is Dallas Fort Worth International Airport, 6.5 nm (12.1 km) ENE.

2024/05/22 05:53 (retrieved 34 minutes ago)

KDFW 220553Z 18017G22KT 9SM BKN250 28/23 A2977 RMK AO2 SLP071 T02780233 10306 20272 403220244 51006

Closest aviation forecast (TAF) to Northeast Community Hospital Heliport

Closest forecast is Dallas Fort Worth International Airport, 6.5 nm (12.1 km) ENE.

2024/05/22 06:33 (retrieved 0 seconds ago)

TAF KDFW 220530Z 2206/2312 18011KT P6SM BKN250 FM221000 17011KT P6SM BKN025 FM221500 17014KT P6SM SCT030 BKN250 FM221800 18015KT P6SM VCTS SCT040CB BKN250 TEMPO 2220/2224 3SM TSRA FM230200 14007KT P6SM SCT040 BKN250